Oradell, New Jersey
Current Conditions -  °F | °C
As of 5:51 PM on Wednesday 26 Nov 2014 (Local Time) from KTEB Reporting Station
Light Rain Light Rain  
Wind Chill: 28°   Ceiling: 1000
Heat Index: 36°   Visibility: 5mi
Dew Point: 32°   Wind: 12mph
Humidity: 86%   Direction: 350°N
Pressure: 29.8"   Gusts: 20mph
Location:  40.95°N, 74.03°W
Report Text: KTEB 262251Z 35010G17KT 5SM -RA BKN010 OVC028 02/00 A2980 RMK AO2 SLP092 P0004 T00220000 $
Loading
Personal Weather Stations






























Interactive Weather Map New forecast layout! Learn more

10-Day Weather Forecast

Advertisements
Track Severe Weather on mobile